Time;durP1;ratioP1;P1;durP2;ratioP2;P2;SDS_P1;SDS_P2;PMS_P1;PMS_P2;Temp;Humidity;BMP_temperature;BMP_pressure;BME280_temperature;BME280_humidity;BME280_pressure;Samples;Min_cycle;Max_cycle;Signal;HPM_P1;HPM_P2
2024/01/26 00:02:18;;;;;;;4.33;3.00;;;;;;;8.31;100.00;99107.25;5033304;28;20221;-73
2024/01/26 00:04:44;;;;;;;3.60;2.43;;;;;;;8.24;100.00;99115.09;5033362;28;20209;-73
2024/01/26 00:07:11;;;;;;;3.67;2.10;;;;;;;8.30;100.00;99117.03;5033249;28;20212;-73
2024/01/26 00:09:37;;;;;;;2.10;1.90;;;;;;;8.31;100.00;99123.16;5033243;28;20206;-73
2024/01/26 00:12:03;;;;;;;1.83;1.60;;;;;;;8.37;100.00;99106.56;5033026;28;20212;-73
2024/01/26 00:14:30;;;;;;;2.90;1.40;;;;;;;8.44;100.00;99108.31;5032876;28;20677;-73
2024/01/26 00:16:56;;;;;;;1.57;0.90;;;;;;;8.59;100.00;99111.78;5032816;28;20233;-73
2024/01/26 00:19:23;;;;;;;0.70;0.70;;;;;;;8.62;100.00;99105.31;5033208;28;20210;-73
2024/01/26 00:21:49;;;;;;;1.00;1.00;;;;;;;8.70;100.00;99097.28;5033064;28;20210;-73
2024/01/26 00:24:15;;;;;;;0.97;0.87;;;;;;;8.70;100.00;99105.22;5033145;28;20213;-73
2024/01/26 00:26:42;;;;;;;0.93;0.93;;;;;;;8.72;100.00;99106.69;5032698;28;20210;-73
2024/01/26 00:29:08;;;;;;;0.80;0.80;;;;;;;8.79;100.00;99099.63;5033100;28;20206;-73
2024/01/26 00:31:34;;;;;;;1.17;0.80;;;;;;;8.84;100.00;99105.25;5033021;28;20206;-73
2024/01/26 00:34:01;;;;;;;0.77;0.60;;;;;;;8.81;100.00;99100.28;5032976;28;20229;-73
2024/01/26 00:36:27;;;;;;;2.00;0.70;;;;;;;8.79;100.00;99101.50;5032652;28;20228;-73
2024/01/26 00:38:53;;;;;;;0.83;0.83;;;;;;;8.80;100.00;99111.06;5033002;28;20228;-73
2024/01/26 00:41:20;;;;;;;0.80;0.80;;;;;;;8.82;100.00;99117.84;5032991;28;20579;-73
2024/01/26 00:43:46;;;;;;;0.90;0.90;;;;;;;8.88;100.00;99105.69;5032850;28;20226;-73
2024/01/26 00:46:12;;;;;;;1.43;0.90;;;;;;;8.93;100.00;99108.63;5032758;28;20209;-73
2024/01/26 00:48:39;;;;;;;0.93;0.83;;;;;;;8.98;100.00;99114.19;5033781;28;20206;-73
2024/01/26 00:51:06;;;;;;;0.97;0.80;;;;;;;9.12;100.00;99118.66;5036428;28;20213;-73
2024/01/26 00:53:33;;;;;;;0.67;0.67;;;;;;;9.07;100.00;99116.59;5036301;28;20237;-73
2024/01/26 00:55:59;;;;;;;0.93;0.70;;;;;;;9.01;100.00;99117.28;5036367;28;20404;-73
2024/01/26 00:58:26;;;;;;;1.47;0.90;;;;;;;8.97;100.00;99116.00;5036295;28;20202;-73
2024/01/26 01:00:52;;;;;;;1.80;1.37;;;;;;;8.94;100.00;99120.88;5036236;28;20202;-73
2024/01/26 01:03:19;;;;;;;1.53;0.90;;;;;;;8.96;100.00;99122.34;5036195;28;20222;-73
2024/01/26 01:05:45;;;;;;;0.97;0.90;;;;;;;8.93;100.00;99120.06;5035982;28;20544;-73
2024/01/26 01:08:12;;;;;;;1.53;0.87;;;;;;;9.14;100.00;99124.63;5036134;28;20209;-73
2024/01/26 01:10:38;;;;;;;1.43;0.80;;;;;;;9.18;100.00;99120.56;5036166;28;20205;-73
2024/01/26 01:13:05;;;;;;;0.70;0.70;;;;;;;9.16;100.00;99133.22;5035648;28;20747;-73
2024/01/26 01:15:32;;;;;;;0.80;0.80;;;;;;;9.10;100.00;99123.34;5035880;28;20602;-73
2024/01/26 01:17:59;;;;;;;2.37;0.80;;;;;;;9.14;100.00;99130.75;5036028;28;20206;-73
2024/01/26 01:20:25;;;;;;;1.73;0.70;;;;;;;9.23;100.00;99131.50;5035606;28;20212;-73
2024/01/26 01:22:52;;;;;;;1.10;0.63;;;;;;;9.22;100.00;99133.31;5035410;28;20708;-73
2024/01/26 01:25:18;;;;;;;1.40;0.63;;;;;;;9.33;100.00;99116.91;5035624;28;20216;-73
2024/01/26 01:27:45;;;;;;;0.60;0.60;;;;;;;9.21;100.00;99134.31;5035785;28;20212;-73
2024/01/26 01:30:11;;;;;;;0.90;0.60;;;;;;;9.12;100.00;99132.78;5035675;28;20228;-73
2024/01/26 01:32:37;;;;;;;0.73;0.63;;;;;;;9.16;100.00;99130.56;5035328;28;20734;-73
2024/01/26 01:35:05;;;;;;;1.00;0.70;;;;;;;9.17;100.00;99130.38;5035207;28;20673;-73
2024/01/26 01:37:31;;;;;;;0.83;0.67;;;;;;;9.21;100.00;99125.53;5035647;28;20209;-73
2024/01/26 01:39:58;;;;;;;0.73;0.70;;;;;;;9.09;100.00;99129.66;5035641;28;20212;-73
2024/01/26 01:42:24;;;;;;;0.50;0.50;;;;;;;9.12;100.00;99123.97;5035455;28;20226;-73
2024/01/26 01:44:51;;;;;;;0.53;0.53;;;;;;;9.05;100.00;99120.44;5035196;28;20696;-73
2024/01/26 01:47:17;;;;;;;0.80;0.60;;;;;;;9.03;100.00;99125.91;5035214;28;20297;-73
2024/01/26 01:49:44;;;;;;;0.60;0.60;;;;;;;8.98;100.00;99119.50;5035473;28;20208;-73
2024/01/26 01:52:14;;;;;;;0.90;0.47;;;;;;;8.92;100.00;99112.28;5035389;28;20226;-73
2024/01/26 01:54:41;;;;;;;0.90;0.70;;;;;;;8.88;100.00;99108.34;5035431;28;20602;-73
2024/01/26 01:57:11;;;;;;;0.90;0.60;;;;;;;8.85;100.00;99111.34;5035235;28;20230;-73
2024/01/26 01:59:38;;;;;;;0.40;0.40;;;;;;;8.84;100.00;99120.31;5034869;28;20209;-73
2024/01/26 02:02:05;;;;;;;1.37;0.60;;;;;;;8.83;100.00;99118.69;5035094;28;20206;-73
2024/01/26 02:04:32;;;;;;;1.20;0.50;;;;;;;8.74;100.00;99125.06;5035219;28;20260;-73
2024/01/26 02:07:00;;;;;;;1.50;0.63;;;;;;;8.73;100.00;99118.13;5035223;28;20202;-73
2024/01/26 02:09:27;;;;;;;0.60;0.60;;;;;;;8.71;100.00;99107.69;5035091;28;20206;-73
2024/01/26 02:11:55;;;;;;;0.80;0.70;;;;;;;8.65;100.00;99108.41;5034984;28;20201;-73
2024/01/26 02:14:21;;;;;;;0.90;0.70;;;;;;;8.59;100.00;99116.25;5035011;28;20260;-73
2024/01/26 02:17:01;;;;;;;1.07;0.53;;;;;;;8.58;100.00;99114.63;5034849;28;20222;-73
2024/01/26 02:19:33;;;;;;;1.20;0.80;;;;;;;8.56;100.00;99120.09;5034628;28;20193;-73
2024/01/26 02:21:59;;;;;;;1.00;0.73;;;;;;;8.56;100.00;99121.94;5034816;28;20268;-73
2024/01/26 02:24:26;;;;;;;1.03;0.87;;;;;;;8.51;100.00;99116.34;5034647;28;20208;-73
2024/01/26 02:26:53;;;;;;;2.37;0.80;;;;;;;8.57;100.00;99115.63;5034418;28;20201;-73
2024/01/26 02:29:19;;;;;;;0.70;0.70;;;;;;;8.62;100.00;99111.44;5034692;28;20202;-73
2024/01/26 02:31:45;;;;;;;0.83;0.80;;;;;;;8.62;100.00;99111.44;5034611;28;20247;-73
2024/01/26 02:34:13;;;;;;;1.20;0.90;;;;;;;8.56;100.00;99112.16;5034429;28;20228;-73
2024/01/26 02:36:39;;;;;;;1.30;0.67;;;;;;;8.56;100.00;99111.34;5034431;28;20230;-73
2024/01/26 02:39:06;;;;;;;0.70;0.70;;;;;;;8.53;100.00;99117.81;5034466;28;20216;-73
2024/01/26 02:41:35;;;;;;;0.63;0.50;;;;;;;8.51;100.00;99119.00;5034388;28;20212;-73
2024/01/26 02:44:01;;;;;;;0.80;0.80;;;;;;;8.50;100.00;99118.19;5034302;28;20226;-73
2024/01/26 02:46:28;;;;;;;1.33;0.90;;;;;;;8.51;100.00;99116.34;5034353;28;20209;-73
2024/01/26 02:48:54;;;;;;;0.87;0.87;;;;;;;8.51;100.00;99116.34;5034342;28;20218;-73
2024/01/26 02:51:21;;;;;;;0.93;0.77;;;;;;;8.46;100.00;99108.13;5034242;28;20577;-73
2024/01/26 02:53:47;;;;;;;0.60;0.60;;;;;;;8.44;100.00;99110.94;5033885;28;20735;-73
2024/01/26 02:56:13;;;;;;;0.67;0.67;;;;;;;8.53;100.00;99109.03;5033832;28;20225;-73
2024/01/26 02:58:40;;;;;;;1.37;0.70;;;;;;;8.52;100.00;99108.22;5034089;28;20212;-73
2024/01/26 03:01:06;;;;;;;0.93;0.50;;;;;;;8.53;100.00;99103.75;5033766;28;20566;-73
2024/01/26 03:03:33;;;;;;;0.70;0.70;;;;;;;8.57;100.00;99112.97;5034067;28;20229;-73
2024/01/26 03:05:59;;;;;;;0.67;0.67;;;;;;;8.60;100.00;99120.56;5033754;28;20684;-73
2024/01/26 03:08:26;;;;;;;0.60;0.60;;;;;;;8.63;100.00;99117.53;5033985;28;20212;-73
2024/01/26 03:10:52;;;;;;;0.97;0.70;;;;;;;8.69;100.00;99111.53;5033378;28;20209;-73
2024/01/26 03:13:18;;;;;;;0.50;0.50;;;;;;;8.73;100.00;99110.19;5033713;28;20592;-73
2024/01/26 03:15:49;;;;;;;0.70;0.60;;;;;;;8.71;100.00;99120.13;5033819;28;20213;-73
2024/01/26 03:18:17;;;;;;;0.60;0.60;;;;;;;8.72;100.00;99109.34;5033942;28;20194;-73
2024/01/26 03:20:44;;;;;;;0.47;0.47;;;;;;;8.77;100.00;99109.63;5033866;28;20210;-73
2024/01/26 03:23:10;;;;;;;0.43;0.40;;;;;;;8.70;100.00;99103.41;5033599;28;20233;-73
2024/01/26 03:25:37;;;;;;;1.07;0.50;;;;;;;8.68;100.00;99108.06;5033367;28;20258;-73
2024/01/26 03:28:03;;;;;;;0.87;0.60;;;;;;;8.69;100.00;99098.28;5033663;28;20202;-73
2024/01/26 03:30:30;;;;;;;0.70;0.40;;;;;;;8.70;100.00;99105.22;5033345;28;20672;-73
2024/01/26 03:32:56;;;;;;;0.83;0.60;;;;;;;8.80;100.00;99105.78;5033255;28;20736;-73
2024/01/26 03:35:22;;;;;;;1.83;0.50;;;;;;;8.78;100.00;99097.19;5033627;28;20257;-73
2024/01/26 03:37:49;;;;;;;0.50;0.50;;;;;;;8.79;100.00;99107.59;5033548;28;20249;-73
2024/01/26 03:40:15;;;;;;;1.10;0.67;;;;;;;8.83;100.00;99121.34;5033580;28;20579;-73
2024/01/26 03:42:42;;;;;;;0.87;0.50;;;;;;;8.73;100.00;99110.97;5033535;28;20225;-73
2024/01/26 03:45:08;;;;;;;0.50;0.50;;;;;;;8.78;100.00;99123.72;5033237;28;20265;-73
2024/01/26 03:47:35;;;;;;;0.80;0.80;;;;;;;8.76;100.00;99121.22;5033545;28;20204;-73
2024/01/26 03:50:01;;;;;;;0.50;0.50;;;;;;;8.78;100.00;99115.75;5033470;28;20205;-73
2024/01/26 03:52:27;;;;;;;1.30;0.60;;;;;;;8.76;100.00;99121.22;5032974;28;20236;-73
2024/01/26 03:54:54;;;;;;;0.63;0.60;;;;;;;8.69;100.00;99117.66;5032962;28;20210;-73
2024/01/26 03:57:20;;;;;;;1.10;0.80;;;;;;;8.67;100.00;99118.84;5033334;28;20221;-73
2024/01/26 03:59:47;;;;;;;0.70;0.70;;;;;;;8.62;100.00;99123.84;5033347;28;20210;-73
2024/01/26 04:02:13;;;;;;;0.83;0.80;;;;;;;8.58;100.00;99127.88;5033242;28;20222;-73
2024/01/26 04:04:39;;;;;;;0.70;0.70;;;;;;;8.57;100.00;99120.94;5033166;28;20328;-73
2024/01/26 04:07:06;;;;;;;0.97;0.70;;;;;;;8.55;100.00;99117.66;5033181;28;20202;-73
2024/01/26 04:09:32;;;;;;;1.27;0.80;;;;;;;8.50;100.00;99127.94;5033021;28;20214;-73
2024/01/26 04:11:59;;;;;;;0.83;0.80;;;;;;;8.48;100.00;99125.50;5033113;28;20571;-73
2024/01/26 04:14:25;;;;;;;0.90;0.77;;;;;;;8.54;100.00;99122.13;5033196;28;20580;-73
2024/01/26 04:16:51;;;;;;;1.13;0.90;;;;;;;8.47;100.00;99123.81;5033109;28;20327;-73
2024/01/26 04:19:19;;;;;;;1.20;0.90;;;;;;;8.44;100.00;99116.25;5033106;28;20206;-73
2024/01/26 04:21:46;;;;;;;0.70;0.70;;;;;;;8.48;100.00;99122.00;5033030;28;20209;-73
2024/01/26 04:24:12;;;;;;;0.70;0.70;;;;;;;8.48;100.00;99124.66;5036495;28;20222;-73
2024/01/26 04:26:39;;;;;;;1.30;0.87;;;;;;;8.56;100.00;99121.94;5036454;28;20210;-73
2024/01/26 04:29:05;;;;;;;0.70;0.70;;;;;;;8.48;100.00;99111.41;5036826;28;20202;-73
2024/01/26 04:31:31;;;;;;;1.37;0.70;;;;;;;8.43;100.00;99111.13;5036761;28;20210;-73
2024/01/26 04:33:58;;;;;;;0.80;0.80;;;;;;;8.44;100.00;99118.91;5036611;28;20226;-73
2024/01/26 04:36:24;;;;;;;0.97;0.90;;;;;;;8.37;100.00;99107.34;5036577;28;20229;-73
2024/01/26 04:38:51;;;;;;;0.70;0.70;;;;;;;8.37;100.00;99093.31;5036160;28;20676;-73
2024/01/26 04:41:17;;;;;;;0.83;0.80;;;;;;;8.31;100.00;99086.88;5036207;28;20213;-73
2024/01/26 04:43:44;;;;;;;1.20;0.90;;;;;;;8.38;100.00;99077.19;5035946;28;20236;-73
2024/01/26 04:46:10;;;;;;;1.17;0.80;;;;;;;8.50;100.00;99082.88;5036048;28;20576;-73
2024/01/26 04:48:36;;;;;;;1.13;0.97;;;;;;;8.42;100.00;99083.00;5035999;28;20206;-73
2024/01/26 04:51:03;;;;;;;1.10;0.77;;;;;;;8.42;100.00;99083.78;5036121;28;20664;-73
2024/01/26 04:53:29;;;;;;;0.80;0.80;;;;;;;8.34;100.00;99093.66;5036005;28;20738;-73
2024/01/26 04:55:55;;;;;;;0.87;0.87;;;;;;;8.40;100.00;99091.09;5035725;28;20665;-73
2024/01/26 04:58:22;;;;;;;1.00;0.83;;;;;;;8.36;100.00;99094.28;5035932;28;20213;-73
2024/01/26 05:00:48;;;;;;;1.10;0.90;;;;;;;8.35;100.00;99090.84;5035774;28;20688;-73
2024/01/26 05:03:15;;;;;;;1.13;0.80;;;;;;;8.39;100.00;99089.47;5035733;28;20237;-73
2024/01/26 05:05:41;;;;;;;0.80;0.80;;;;;;;8.38;100.00;99090.44;5036481;28;20206;-73
2024/01/26 05:08:07;;;;;;;1.00;0.90;;;;;;;8.38;100.00;99098.41;5035674;28;20210;-73
2024/01/26 05:10:34;;;;;;;1.17;0.90;;;;;;;8.35;100.00;99103.25;5035728;28;20206;-73
2024/01/26 05:13:00;;;;;;;0.63;0.63;;;;;;;8.37;100.00;99099.41;5035832;28;20222;-73
2024/01/26 05:15:26;;;;;;;0.80;0.80;;;;;;;8.32;100.00;99107.06;5035881;28;20202;-73
2024/01/26 05:17:53;;;;;;;0.77;0.73;;;;;;;8.35;100.00;99100.59;5035398;28;20726;-73
2024/01/26 05:20:19;;;;;;;0.93;0.80;;;;;;;8.34;100.00;99105.09;5035906;28;20202;-73
2024/01/26 05:22:45;;;;;;;1.33;0.70;;;;;;;8.37;100.00;99102.06;5035848;28;20249;-73
2024/01/26 05:25:12;;;;;;;0.90;0.80;;;;;;;8.39;100.00;99102.72;5035365;28;20232;-73
2024/01/26 05:27:40;;;;;;;2.10;0.70;;;;;;;8.40;100.00;99093.75;5035559;28;20205;-73
2024/01/26 05:30:07;;;;;;;0.90;0.73;;;;;;;8.45;100.00;99099.34;5035264;28;20241;-73
2024/01/26 05:32:33;;;;;;;1.57;0.80;;;;;;;8.37;100.00;99094.09;5035349;28;20229;-73
2024/01/26 05:35:00;;;;;;;3.43;1.10;;;;;;;8.36;100.00;99086.34;5034617;28;20232;-73
2024/01/26 05:37:26;;;;;;;1.67;0.80;;;;;;;8.39;100.00;99091.28;5035309;28;20226;-73
2024/01/26 05:39:52;;;;;;;2.43;1.17;;;;;;;8.34;100.00;99093.66;5035658;28;20580;-73
2024/01/26 05:42:19;;;;;;;1.77;1.00;;;;;;;8.36;100.00;99078.38;5034944;28;20600;-73
2024/01/26 05:44:45;;;;;;;4.40;2.10;;;;;;;8.34;100.00;99075.09;5034864;28;20213;-73
2024/01/26 05:47:11;;;;;;;1.43;0.80;;;;;;;8.42;100.00;99078.50;5035099;28;20202;-73
2024/01/26 05:49:38;;;;;;;1.30;0.83;;;;;;;8.35;100.00;99069.63;5035053;28;20212;-73
2024/01/26 05:52:04;;;;;;;1.70;0.73;;;;;;;8.35;100.00;99072.28;5035149;28;20206;-73
2024/01/26 05:54:31;;;;;;;1.87;0.70;;;;;;;8.38;100.00;99077.19;5035064;28;20209;-73
2024/01/26 05:56:57;;;;;;;1.20;0.90;;;;;;;8.33;100.00;99081.41;5034438;28;20697;-73
2024/01/26 05:59:24;;;;;;;1.90;0.93;;;;;;;8.40;100.00;99074.38;5034457;28;20579;-73
2024/01/26 06:01:54;;;;;;;2.00;0.87;;;;;;;8.43;100.00;99069.56;5034374;28;20625;-73
2024/01/26 06:04:23;;;;;;;1.30;0.90;;;;;;;8.42;100.00;99077.69;5034267;28;20235;-73
2024/01/26 06:06:54;;;;;;;0.80;0.80;;;;;;;8.42;100.00;99073.19;5034508;28;20661;-73
2024/01/26 06:09:23;;;;;;;1.67;1.10;;;;;;;8.32;100.00;99082.44;5034548;28;20199;-73
2024/01/26 06:11:54;;;;;;;0.93;0.90;;;;;;;8.32;100.00;99069.19;5034292;28;20293;-73
2024/01/26 06:14:25;;;;;;;1.13;1.03;;;;;;;8.31;100.00;99083.41;5034303;28;20190;-73
2024/01/26 06:16:56;;;;;;;0.97;0.87;;;;;;;8.48;100.00;99082.25;5034231;28;20220;-73
2024/01/26 06:19:28;;;;;;;2.30;0.80;;;;;;;8.61;100.00;99088.59;5035192;28;20205;-74
2024/01/26 06:22:01;;;;;;;1.37;0.60;;;;;;;8.70;100.00;99084.03;5034239;28;20186;-73
2024/01/26 06:24:29;;;;;;;2.40;0.70;;;;;;;8.85;100.00;99098.09;5033738;28;20194;-73
2024/01/26 06:26:56;;;;;;;0.83;0.70;;;;;;;8.91;100.00;99090.22;5033872;28;20637;-73
2024/01/26 06:29:22;;;;;;;0.73;0.70;;;;;;;8.94;100.00;99075.78;5033980;28;20299;-73
2024/01/26 06:31:49;;;;;;;1.30;0.70;;;;;;;9.01;100.00;99076.72;5034269;28;20214;-73
2024/01/26 06:34:15;;;;;;;0.80;0.80;;;;;;;9.02;100.00;99081.84;5034109;28;20289;-73
2024/01/26 06:36:41;;;;;;;0.90;0.80;;;;;;;9.13;100.00;99077.88;5033489;28;20689;-73
2024/01/26 06:39:08;;;;;;;0.73;0.70;;;;;;;9.16;100.00;99091.59;5034003;28;20202;-73
2024/01/26 06:41:35;;;;;;;2.70;0.77;;;;;;;9.27;100.00;99083.16;5033943;28;20252;-73
2024/01/26 06:44:02;;;;;;;1.17;0.80;;;;;;;9.25;100.00;99085.19;5033509;28;20778;-73
2024/01/26 06:46:29;;;;;;;1.73;0.87;;;;;;;9.24;100.00;99085.38;5033545;28;20202;-73
2024/01/26 06:48:55;;;;;;;3.60;1.00;;;;;;;9.27;100.00;99084.97;5033429;28;20206;-73
2024/01/26 06:51:21;;;;;;;0.80;0.80;;;;;;;9.27;100.00;99083.16;5033678;28;20202;-73
2024/01/26 06:53:48;;;;;;;1.47;0.80;;;;;;;9.28;100.00;99081.34;5033628;28;20222;-73
2024/01/26 06:56:15;;;;;;;1.13;0.70;;;;;;;9.29;100.00;99080.31;5033625;28;20210;-73
2024/01/26 06:58:41;;;;;;;2.10;0.90;;;;;;;9.29;100.00;99090.94;5033277;28;20236;-73
2024/01/26 07:01:08;;;;;;;0.90;0.90;;;;;;;9.32;100.00;99090.56;5033513;28;20210;-73
2024/01/26 07:03:34;;;;;;;0.63;0.63;;;;;;;9.45;100.00;99098.66;5033319;28;20226;-73
2024/01/26 07:06:01;;;;;;;1.27;0.70;;;;;;;9.49;100.00;99092.81;5033398;28;20288;-73
2024/01/26 07:08:27;;;;;;;0.77;0.60;;;;;;;9.48;100.00;99100.97;5033412;28;20238;-73
2024/01/26 07:10:54;;;;;;;1.10;0.63;;;;;;;9.55;100.00;99091.25;5033525;28;20202;-73
2024/01/26 07:13:20;;;;;;;0.77;0.70;;;;;;;9.56;100.00;99090.25;5033437;28;20297;-73
2024/01/26 07:15:46;;;;;;;0.80;0.70;;;;;;;9.54;100.00;99087.78;5033517;28;20202;-73
2024/01/26 07:18:13;;;;;;;1.20;0.77;;;;;;;9.64;100.00;99076.84;5033349;28;20229;-73
2024/01/26 07:20:39;;;;;;;1.40;0.67;;;;;;;9.66;100.00;99082.78;5033498;28;20206;-73
2024/01/26 07:23:05;;;;;;;0.77;0.60;;;;;;;9.62;100.00;99084.16;5033449;28;20228;-73
2024/01/26 07:25:32;;;;;;;0.90;0.67;;;;;;;9.62;100.00;99081.50;5033251;28;20583;-73
2024/01/26 07:27:58;;;;;;;0.63;0.50;;;;;;;9.61;100.00;99087.84;5033202;28;20566;-73
2024/01/26 07:30:26;;;;;;;1.27;0.67;;;;;;;9.63;100.00;99080.50;5032638;28;20692;-73
2024/01/26 07:32:52;;;;;;;1.00;0.77;;;;;;;9.57;100.00;99071.47;5032816;28;20708;-73
2024/01/26 07:35:18;;;;;;;1.43;0.80;;;;;;;9.64;100.00;99063.59;5032971;28;20684;-73
2024/01/26 07:37:45;;;;;;;0.70;0.70;;;;;;;9.71;100.00;99064.44;5033008;28;20708;-73
2024/01/26 07:40:12;;;;;;;1.00;0.70;;;;;;;9.70;100.00;99057.50;5033249;28;20205;-73
2024/01/26 07:42:38;;;;;;;0.60;0.60;;;;;;;9.67;100.00;99050.75;5032938;28;20232;-73
2024/01/26 07:45:05;;;;;;;1.63;0.60;;;;;;;9.68;100.00;99057.69;5033228;28;20206;-73
2024/01/26 07:47:31;;;;;;;1.63;0.70;;;;;;;9.60;100.00;99057.81;5033182;28;20202;-73
2024/01/26 07:49:58;;;;;;;1.23;0.70;;;;;;;9.74;100.00;99078.16;5032842;28;20202;-73
2024/01/26 07:52:24;;;;;;;1.23;0.60;;;;;;;9.75;100.00;99077.19;5033314;28;20232;-73
2024/01/26 07:54:52;;;;;;;1.00;0.60;;;;;;;9.89;100.00;99078.13;5033150;28;20205;-73
2024/01/26 07:57:19;;;;;;;1.33;0.77;;;;;;;9.96;100.00;99079.03;5032986;28;20247;-73
2024/01/26 07:59:45;;;;;;;1.40;0.67;;;;;;;10.06;100.00;99071.56;5036816;28;20201;-73
2024/01/26 08:02:12;;;;;;;2.50;0.77;;;;;;;10.04;100.00;99074.41;5036655;28;20728;-73
2024/01/26 08:04:38;;;;;;;1.37;0.83;;;;;;;10.07;100.00;99060.75;5036851;28;20202;-73
2024/01/26 08:07:04;;;;;;;1.17;0.73;;;;;;;10.17;100.00;99057.75;5036477;28;20205;-73
2024/01/26 08:09:31;;;;;;;0.80;0.73;;;;;;;10.18;100.00;99067.41;5036659;28;20260;-73
2024/01/26 08:11:57;;;;;;;0.80;0.70;;;;;;;10.29;100.00;99059.72;5036867;28;20574;-73
2024/01/26 08:14:23;;;;;;;0.70;0.70;;;;;;;10.30;100.00;99052.56;5036632;28;20250;-73
2024/01/26 08:16:50;;;;;;;2.53;0.73;;;;;;;10.33;100.00;99062.81;5036661;28;20207;-73
2024/01/26 08:19:16;;;;;;;0.60;0.60;;;;;;;10.32;100.00;99050.53;5037073;28;20213;-73
2024/01/26 08:21:42;;;;;;;0.80;0.60;;;;;;;10.27;100.00;99048.44;5036766;28;20205;-73
2024/01/26 08:24:09;;;;;;;1.03;0.73;;;;;;;10.24;100.00;99059.47;5036843;28;20222;-73
2024/01/26 08:26:35;;;;;;;1.30;0.70;;;;;;;10.30;100.00;99064.03;5036229;28;20284;-73
2024/01/26 08:29:02;;;;;;;1.07;0.80;;;;;;;10.36;100.00;99054.47;5036385;28;20608;-73
2024/01/26 08:31:29;;;;;;;1.57;0.80;;;;;;;10.27;100.00;99056.41;5036527;28;20213;-73
2024/01/26 08:33:55;;;;;;;1.50;0.80;;;;;;;10.36;100.00;99059.78;5036441;28;20270;-73
2024/01/26 08:36:22;;;;;;;1.67;0.80;;;;;;;10.29;100.00;99050.91;5036465;28;20206;-73
2024/01/26 08:38:49;;;;;;;2.50;0.93;;;;;;;10.23;100.00;99041.88;5036275;28;20231;-73
2024/01/26 08:41:16;;;;;;;0.97;0.70;;;;;;;10.31;100.00;99025.78;5035972;28;20206;-73
2024/01/26 08:43:43;;;;;;;2.10;0.80;;;;;;;10.35;100.00;99032.38;5035771;28;20229;-73
2024/01/26 08:46:11;;;;;;;0.80;0.70;;;;;;;10.27;100.00;99026.38;5035959;28;20674;-73
2024/01/26 08:48:37;;;;;;;0.80;0.80;;;;;;;10.29;100.00;99019.84;5035969;28;20214;-73
2024/01/26 08:51:03;;;;;;;1.30;0.77;;;;;;;10.37;100.00;99011.72;5035876;28;20214;-73
2024/01/26 08:53:30;;;;;;;1.00;0.73;;;;;;;10.36;100.00;99006.63;5036035;28;20237;-73
2024/01/26 08:55:56;;;;;;;1.20;0.87;;;;;;;10.34;100.00;99000.66;5035746;28;20207;-73
2024/01/26 08:58:22;;;;;;;1.83;0.90;;;;;;;10.36;100.00;98988.81;5036013;28;20222;-73
2024/01/26 09:00:49;;;;;;;1.47;0.90;;;;;;;10.42;100.00;98990.69;5035704;28;20569;-73
2024/01/26 09:03:15;;;;;;;1.00;0.90;;;;;;;10.50;100.00;98993.19;5036001;28;20233;-73
2024/01/26 09:05:42;;;;;;;0.73;0.73;;;;;;;10.56;100.00;98984.44;5036025;28;20213;-73
2024/01/26 09:08:08;;;;;;;0.93;0.87;;;;;;;10.62;100.00;98983.66;5036013;28;20202;-73
2024/01/26 09:10:34;;;;;;;1.07;0.90;;;;;;;10.62;100.00;98967.69;5034302;28;20214;-73
2024/01/26 09:13:01;;;;;;;0.90;0.80;;;;;;;10.68;100.00;98966.09;5036472;28;20241;-73
2024/01/26 09:15:27;;;;;;;1.33;0.80;;;;;;;10.71;100.00;98961.19;5037327;28;20207;-73
2024/01/26 09:17:53;;;;;;;2.40;0.80;;;;;;;10.85;100.00;98964.72;5035719;28;20233;-73
2024/01/26 09:20:20;;;;;;;2.57;0.90;;;;;;;10.85;100.00;98959.41;5035526;28;20219;-73
2024/01/26 09:22:46;;;;;;;1.00;0.87;;;;;;;10.89;100.00;98974.78;5035559;28;20232;-73
2024/01/26 09:25:12;;;;;;;2.47;1.17;;;;;;;10.92;100.00;98976.22;5035435;28;20223;-73
2024/01/26 09:27:39;;;;;;;0.80;0.80;;;;;;;10.95;100.00;98975.84;5035342;28;20209;-73
2024/01/26 09:30:06;;;;;;;0.97;0.90;;;;;;;11.01;100.00;98983.00;5035376;28;20202;-73
2024/01/26 09:32:33;;;;;;;0.90;0.90;;;;;;;11.00;100.00;98968.88;5035369;28;20230;-73
2024/01/26 09:35:01;;;;;;;0.90;0.60;;;;;;;10.95;100.00;98984.63;5035069;28;20702;-73
2024/01/26 09:37:27;;;;;;;2.33;0.90;;;;;;;10.91;100.00;98994.00;5034792;28;20297;-73
2024/01/26 09:39:54;;;;;;;0.70;0.70;;;;;;;10.90;100.00;98980.91;5035255;28;20346;-73
2024/01/26 09:42:20;;;;;;;0.97;0.80;;;;;;;10.92;100.00;98976.22;5034788;28;20729;-73
2024/01/26 09:44:47;;;;;;;0.97;0.80;;;;;;;10.93;100.00;98982.38;5035063;28;20221;-73
2024/01/26 09:47:15;;;;;;;1.13;0.80;;;;;;;10.87;100.00;98991.97;5035205;28;20215;-73
2024/01/26 09:50:04;;;;;;;0.90;0.90;;;;;;;10.98;100.00;98966.63;5035170;28;20207;-73
2024/01/26 09:52:31;;;;;;;0.93;0.90;;;;;;;10.99;100.00;98963.75;5035173;28;20224;-73
2024/01/26 09:55:00;;;;;;;1.17;0.70;;;;;;;11.01;100.00;98972.38;5034889;28;20292;-73
2024/01/26 09:57:28;;;;;;;1.40;0.93;;;;;;;11.09;100.00;98980.19;5034999;28;20247;-73
2024/01/26 09:59:54;;;;;;;0.80;0.80;;;;;;;11.21;100.00;98980.44;5035002;28;20215;-73
2024/01/26 10:02:24;;;;;;;0.80;0.80;;;;;;;11.12;100.00;98974.44;5034849;28;20235;-73
2024/01/26 10:04:50;;;;;;;1.77;0.77;;;;;;;11.15;100.00;98979.38;5034853;28;20212;-73
2024/01/26 10:07:17;;;;;;;0.60;0.60;;;;;;;11.17;100.00;98981.84;5034361;28;20213;-73
2024/01/26 10:09:45;;;;;;;0.97;0.70;;;;;;;11.17;100.00;98982.66;5034508;28;20210;-73
2024/01/26 10:12:11;;;;;;;1.63;0.80;;;;;;;11.23;100.00;98990.66;5034622;28;20228;-73
2024/01/26 10:14:38;;;;;;;1.13;0.70;;;;;;;11.24;100.00;98986.16;5034440;28;20220;-73
2024/01/26 10:17:05;;;;;;;1.37;0.83;;;;;;;11.26;100.00;98983.31;5034098;28;20220;-73
2024/01/26 10:19:31;;;;;;;1.57;0.70;;;;;;;11.27;100.00;98981.25;5034272;28;20240;-73
2024/01/26 10:21:59;;;;;;;1.90;0.80;;;;;;;11.34;100.00;98975.94;5033511;28;20618;-73
2024/01/26 10:24:26;;;;;;;1.93;0.70;;;;;;;11.38;100.00;98976.34;5034067;28;20208;-73
2024/01/26 10:26:54;;;;;;;1.40;0.80;;;;;;;11.46;100.00;98965.53;5034453;28;20208;-73
2024/01/26 10:29:22;;;;;;;1.97;1.00;;;;;;;11.50;100.00;98967.59;5034243;28;20201;-73
2024/01/26 10:31:50;;;;;;;0.77;0.77;;;;;;;11.55;100.00;98970.47;5033954;28;20213;-73
2024/01/26 10:34:18;;;;;;;0.80;0.70;;;;;;;11.56;100.00;98966.78;5033968;28;20710;-73
2024/01/26 10:36:46;;;;;;;0.70;0.70;;;;;;;11.52;100.00;98962.88;5033318;28;20610;-73
2024/01/26 10:39:23;;;;;;;0.70;0.70;;;;;;;11.53;100.00;98966.38;5033799;28;20230;-73
2024/01/26 10:41:53;;;;;;;0.83;0.83;;;;;;;11.56;100.00;98956.13;5034610;28;20518;-73
2024/01/26 10:44:20;;;;;;;0.67;0.67;;;;;;;11.58;100.00;98964.72;5033920;28;20216;-73
2024/01/26 10:46:46;;;;;;;0.60;0.60;;;;;;;11.61;100.00;98963.53;5034027;28;20224;-73
2024/01/26 10:49:13;;;;;;;1.03;0.80;;;;;;;11.61;100.00;98963.53;5033941;28;20214;-73
2024/01/26 10:51:41;;;;;;;0.80;0.60;;;;;;;11.64;100.00;98966.63;5033549;28;20694;-73
2024/01/26 10:54:11;;;;;;;0.70;0.70;;;;;;;11.64;100.00;98952.47;5033446;28;20224;-73
2024/01/26 10:56:39;;;;;;;1.03;0.80;;;;;;;11.66;100.00;98955.75;5034474;28;20237;-73
2024/01/26 10:59:07;;;;;;;1.27;0.90;;;;;;;11.62;100.00;98949.19;5033485;28;20720;-73
2024/01/26 11:01:34;;;;;;;1.93;0.90;;;;;;;11.61;100.00;98936.91;5033832;28;20231;-73
2024/01/26 11:04:01;;;;;;;1.00;0.80;;;;;;;11.68;100.00;98933.22;5033412;28;20315;-73
2024/01/26 11:06:29;;;;;;;0.90;0.80;;;;;;;11.70;100.00;98923.16;5033429;28;20212;-73
2024/01/26 11:09:05;;;;;;;1.20;0.70;;;;;;;11.72;100.00;98923.81;5033417;28;20208;-73
2024/01/26 11:11:41;;;;;;;1.77;0.80;;;;;;;11.76;100.00;98917.00;5033696;28;20200;-73
2024/01/26 11:14:11;;;;;;;1.03;0.70;;;;;;;11.78;100.00;98932.78;5033323;28;20235;-73
2024/01/26 11:16:43;;;;;;;1.00;0.70;;;;;;;11.77;100.00;98925.84;5033521;28;20255;-73
2024/01/26 11:19:22;;;;;;;0.90;0.70;;;;;;;11.80;100.00;98928.09;5033180;28;20281;-73
2024/01/26 11:21:48;;;;;;;1.17;0.70;;;;;;;11.78;100.00;98917.66;5033109;28;20670;-73
2024/01/26 11:24:17;;;;;;;0.87;0.70;;;;;;;11.69;100.00;98916.22;5033223;28;20236;-73
2024/01/26 11:26:55;;;;;;;1.03;0.93;;;;;;;11.72;100.00;98912.31;5033242;28;20217;-73
2024/01/26 11:29:21;;;;;;;1.47;0.80;;;;;;;11.76;100.00;98902.91;5033776;28;20603;-73
2024/01/26 11:31:48;;;;;;;1.43;0.70;;;;;;;11.75;100.00;98902.06;5032658;28;20211;-73